sensor_id;sensor_type;location;lat;lon;timestamp;temperature;humidity
42245;DHT22;27912;51.828;5.688;2023-12-14T00:01:17;6.80;99.90
42245;DHT22;27912;51.828;5.688;2023-12-14T00:03:43;6.80;99.90
42245;DHT22;27912;51.828;5.688;2023-12-14T00:06:12;6.80;99.90
42245;DHT22;27912;51.828;5.688;2023-12-14T00:08:38;6.80;99.90
42245;DHT22;27912;51.828;5.688;2023-12-14T00:11:05;6.80;99.90
42245;DHT22;27912;51.828;5.688;2023-12-14T00:13:30;6.80;99.90
42245;DHT22;27912;51.828;5.688;2023-12-14T00:15:56;6.80;99.90
42245;DHT22;27912;51.828;5.688;2023-12-14T00:18:22;6.70;99.90
42245;DHT22;27912;51.828;5.688;2023-12-14T00:20:48;6.70;99.90
42245;DHT22;27912;51.828;5.688;2023-12-14T00:23:14;6.70;99.90
42245;DHT22;27912;51.828;5.688;2023-12-14T00:25:40;6.70;99.90
42245;DHT22;27912;51.828;5.688;2023-12-14T00:28:05;6.70;99.90
42245;DHT22;27912;51.828;5.688;2023-12-14T00:30:31;6.60;99.90
42245;DHT22;27912;51.828;5.688;2023-12-14T00:32:56;6.60;99.90
42245;DHT22;27912;51.828;5.688;2023-12-14T00:35:22;6.60;99.90
42245;DHT22;27912;51.828;5.688;2023-12-14T00:37:47;6.60;99.90
42245;DHT22;27912;51.828;5.688;2023-12-14T00:40:13;6.50;99.90
42245;DHT22;27912;51.828;5.688;2023-12-14T00:42:39;6.50;99.90
42245;DHT22;27912;51.828;5.688;2023-12-14T00:45:05;6.50;99.90
42245;DHT22;27912;51.828;5.688;2023-12-14T00:47:30;6.50;99.90
42245;DHT22;27912;51.828;5.688;2023-12-14T00:49:56;6.50;99.90
42245;DHT22;27912;51.828;5.688;2023-12-14T00:52:21;6.50;99.90
42245;DHT22;27912;51.828;5.688;2023-12-14T00:54:47;6.50;99.90
42245;DHT22;27912;51.828;5.688;2023-12-14T00:57:13;6.40;99.90
42245;DHT22;27912;51.828;5.688;2023-12-14T00:59:38;6.40;99.90
42245;DHT22;27912;51.828;5.688;2023-12-14T01:02:05;6.40;99.90
42245;DHT22;27912;51.828;5.688;2023-12-14T01:04:31;6.40;99.90
42245;DHT22;27912;51.828;5.688;2023-12-14T01:06:57;6.50;99.90
42245;DHT22;27912;51.828;5.688;2023-12-14T01:09:22;6.40;99.90
42245;DHT22;27912;51.828;5.688;2023-12-14T01:11:48;6.40;99.90
42245;DHT22;27912;51.828;5.688;2023-12-14T01:14:14;6.40;99.90
42245;DHT22;27912;51.828;5.688;2023-12-14T01:16:39;6.30;99.90
42245;DHT22;27912;51.828;5.688;2023-12-14T01:19:05;6.30;99.90
42245;DHT22;27912;51.828;5.688;2023-12-14T01:21:33;6.30;99.90
42245;DHT22;27912;51.828;5.688;2023-12-14T01:23:59;6.30;99.90
42245;DHT22;27912;51.828;5.688;2023-12-14T01:26:26;6.30;99.90
42245;DHT22;27912;51.828;5.688;2023-12-14T01:28:52;6.40;99.90
42245;DHT22;27912;51.828;5.688;2023-12-14T01:31:18;6.30;99.90
42245;DHT22;27912;51.828;5.688;2023-12-14T01:33:44;6.30;99.90
42245;DHT22;27912;51.828;5.688;2023-12-14T01:36:11;6.30;99.90
42245;DHT22;27912;51.828;5.688;2023-12-14T01:38:37;6.30;99.90
42245;DHT22;27912;51.828;5.688;2023-12-14T01:41:03;6.30;99.90
42245;DHT22;27912;51.828;5.688;2023-12-14T01:43:29;6.30;99.90
42245;DHT22;27912;51.828;5.688;2023-12-14T01:45:54;6.30;99.90
42245;DHT22;27912;51.828;5.688;2023-12-14T01:48:20;6.30;99.90
42245;DHT22;27912;51.828;5.688;2023-12-14T01:50:46;6.20;99.90
42245;DHT22;27912;51.828;5.688;2023-12-14T01:53:11;6.20;99.90
42245;DHT22;27912;51.828;5.688;2023-12-14T01:55:37;6.20;99.90
42245;DHT22;27912;51.828;5.688;2023-12-14T01:58:02;6.20;99.90
42245;DHT22;27912;51.828;5.688;2023-12-14T02:00:36;6.20;99.90
42245;DHT22;27912;51.828;5.688;2023-12-14T02:03:03;6.20;99.90
42245;DHT22;27912;51.828;5.688;2023-12-14T02:05:29;6.20;99.90
42245;DHT22;27912;51.828;5.688;2023-12-14T02:07:54;6.20;99.90
42245;DHT22;27912;51.828;5.688;2023-12-14T02:10:20;6.10;99.90
42245;DHT22;27912;51.828;5.688;2023-12-14T02:12:45;6.10;99.90
42245;DHT22;27912;51.828;5.688;2023-12-14T02:15:11;6.10;99.90
42245;DHT22;27912;51.828;5.688;2023-12-14T02:17:37;6.10;99.90
42245;DHT22;27912;51.828;5.688;2023-12-14T02:20:03;6.10;99.90
42245;DHT22;27912;51.828;5.688;2023-12-14T02:22:52;6.10;99.90
42245;DHT22;27912;51.828;5.688;2023-12-14T02:25:19;6.10;99.90
42245;DHT22;27912;51.828;5.688;2023-12-14T02:27:45;6.10;99.90
42245;DHT22;27912;51.828;5.688;2023-12-14T02:30:12;6.10;99.90
42245;DHT22;27912;51.828;5.688;2023-12-14T02:32:39;6.10;99.90
42245;DHT22;27912;51.828;5.688;2023-12-14T02:35:05;6.00;99.90
42245;DHT22;27912;51.828;5.688;2023-12-14T02:37:31;6.00;99.90
42245;DHT22;27912;51.828;5.688;2023-12-14T02:39:58;6.00;99.90
42245;DHT22;27912;51.828;5.688;2023-12-14T02:42:23;6.00;99.90
42245;DHT22;27912;51.828;5.688;2023-12-14T02:44:49;6.00;99.90
42245;DHT22;27912;51.828;5.688;2023-12-14T02:47:15;6.00;99.90
42245;DHT22;27912;51.828;5.688;2023-12-14T02:49:41;6.00;99.90
42245;DHT22;27912;51.828;5.688;2023-12-14T02:52:07;6.00;99.90
42245;DHT22;27912;51.828;5.688;2023-12-14T02:54:32;5.90;99.90
42245;DHT22;27912;51.828;5.688;2023-12-14T02:56:58;6.00;99.90
42245;DHT22;27912;51.828;5.688;2023-12-14T02:59:23;5.90;99.90
42245;DHT22;27912;51.828;5.688;2023-12-14T03:01:49;5.90;99.90
42245;DHT22;27912;51.828;5.688;2023-12-14T03:04:15;5.90;99.90
42245;DHT22;27912;51.828;5.688;2023-12-14T03:06:41;5.90;99.90
42245;DHT22;27912;51.828;5.688;2023-12-14T03:09:07;5.90;99.90
42245;DHT22;27912;51.828;5.688;2023-12-14T03:11:33;5.90;99.90
42245;DHT22;27912;51.828;5.688;2023-12-14T03:13:58;5.90;99.90
42245;DHT22;27912;51.828;5.688;2023-12-14T03:16:24;5.90;99.90
42245;DHT22;27912;51.828;5.688;2023-12-14T03:18:49;5.90;99.90
42245;DHT22;27912;51.828;5.688;2023-12-14T03:21:18;5.90;99.90
42245;DHT22;27912;51.828;5.688;2023-12-14T03:23:44;5.90;99.90
42245;DHT22;27912;51.828;5.688;2023-12-14T03:26:10;5.90;99.90
42245;DHT22;27912;51.828;5.688;2023-12-14T03:28:36;5.90;99.90
42245;DHT22;27912;51.828;5.688;2023-12-14T03:31:02;5.90;99.90
42245;DHT22;27912;51.828;5.688;2023-12-14T03:33:28;5.90;99.90
42245;DHT22;27912;51.828;5.688;2023-12-14T03:35:53;5.80;99.90
42245;DHT22;27912;51.828;5.688;2023-12-14T03:38:19;5.90;99.90
42245;DHT22;27912;51.828;5.688;2023-12-14T03:40:45;5.90;99.90
42245;DHT22;27912;51.828;5.688;2023-12-14T03:43:10;5.80;99.90
42245;DHT22;27912;51.828;5.688;2023-12-14T03:45:36;5.80;99.90
42245;DHT22;27912;51.828;5.688;2023-12-14T03:48:01;5.80;99.90
42245;DHT22;27912;51.828;5.688;2023-12-14T03:50:27;5.80;99.90
42245;DHT22;27912;51.828;5.688;2023-12-14T03:52:54;5.80;99.90
42245;DHT22;27912;51.828;5.688;2023-12-14T03:55:20;5.80;99.90
42245;DHT22;27912;51.828;5.688;2023-12-14T03:57:46;5.80;99.90
42245;DHT22;27912;51.828;5.688;2023-12-14T04:00:12;5.80;99.90
42245;DHT22;27912;51.828;5.688;2023-12-14T04:02:39;5.80;99.90
42245;DHT22;27912;51.828;5.688;2023-12-14T04:05:09;5.80;99.90
42245;DHT22;27912;51.828;5.688;2023-12-14T04:07:39;5.80;99.90
42245;DHT22;27912;51.828;5.688;2023-12-14T04:10:09;5.80;99.90
42245;DHT22;27912;51.828;5.688;2023-12-14T04:12:35;5.80;99.90
42245;DHT22;27912;51.828;5.688;2023-12-14T04:15:02;5.80;99.90
42245;DHT22;27912;51.828;5.688;2023-12-14T04:17:27;5.90;99.90
42245;DHT22;27912;51.828;5.688;2023-12-14T04:19:53;5.90;99.90
42245;DHT22;27912;51.828;5.688;2023-12-14T04:22:19;5.90;99.90
42245;DHT22;27912;51.828;5.688;2023-12-14T04:24:45;5.90;99.90
42245;DHT22;27912;51.828;5.688;2023-12-14T04:27:10;5.90;99.90
42245;DHT22;27912;51.828;5.688;2023-12-14T04:29:36;5.90;99.90
42245;DHT22;27912;51.828;5.688;2023-12-14T04:32:02;5.90;99.90
42245;DHT22;27912;51.828;5.688;2023-12-14T04:34:27;5.90;99.90
42245;DHT22;27912;51.828;5.688;2023-12-14T04:36:53;5.90;99.90
42245;DHT22;27912;51.828;5.688;2023-12-14T04:39:26;5.90;99.90
42245;DHT22;27912;51.828;5.688;2023-12-14T04:41:52;5.90;99.90
42245;DHT22;27912;51.828;5.688;2023-12-14T04:44:18;5.80;99.90
42245;DHT22;27912;51.828;5.688;2023-12-14T04:46:44;5.80;99.90
42245;DHT22;27912;51.828;5.688;2023-12-14T04:49:10;5.80;99.90
42245;DHT22;27912;51.828;5.688;2023-12-14T04:51:36;5.80;99.90
42245;DHT22;27912;51.828;5.688;2023-12-14T04:54:01;5.80;99.90
42245;DHT22;27912;51.828;5.688;2023-12-14T04:56:27;5.80;99.90
42245;DHT22;27912;51.828;5.688;2023-12-14T04:58:53;5.90;99.90
42245;DHT22;27912;51.828;5.688;2023-12-14T05:01:19;5.90;99.90
42245;DHT22;27912;51.828;5.688;2023-12-14T05:03:44;5.90;99.90
42245;DHT22;27912;51.828;5.688;2023-12-14T05:06:10;5.90;99.90
42245;DHT22;27912;51.828;5.688;2023-12-14T05:08:36;5.90;99.90
42245;DHT22;27912;51.828;5.688;2023-12-14T05:11:01;5.90;99.90
42245;DHT22;27912;51.828;5.688;2023-12-14T05:13:27;5.90;99.90
42245;DHT22;27912;51.828;5.688;2023-12-14T05:15:52;5.90;99.90
42245;DHT22;27912;51.828;5.688;2023-12-14T05:18:18;5.90;99.90
42245;DHT22;27912;51.828;5.688;2023-12-14T05:20:44;5.90;99.90
42245;DHT22;27912;51.828;5.688;2023-12-14T05:23:13;5.90;99.90
42245;DHT22;27912;51.828;5.688;2023-12-14T05:25:39;5.90;99.90
42245;DHT22;27912;51.828;5.688;2023-12-14T05:28:05;5.90;99.90
42245;DHT22;27912;51.828;5.688;2023-12-14T05:30:30;5.90;99.90
42245;DHT22;27912;51.828;5.688;2023-12-14T05:32:56;5.90;99.90
42245;DHT22;27912;51.828;5.688;2023-12-14T05:35:22;5.90;99.90
42245;DHT22;27912;51.828;5.688;2023-12-14T05:37:47;5.90;99.90
42245;DHT22;27912;51.828;5.688;2023-12-14T05:40:13;5.90;99.90
42245;DHT22;27912;51.828;5.688;2023-12-14T05:42:39;5.80;99.90
42245;DHT22;27912;51.828;5.688;2023-12-14T05:45:05;5.80;99.90
42245;DHT22;27912;51.828;5.688;2023-12-14T05:47:31;5.80;99.90
42245;DHT22;27912;51.828;5.688;2023-12-14T05:49:59;5.80;99.90
42245;DHT22;27912;51.828;5.688;2023-12-14T05:52:25;5.80;99.90
42245;DHT22;27912;51.828;5.688;2023-12-14T05:54:50;5.80;99.90
42245;DHT22;27912;51.828;5.688;2023-12-14T05:57:16;5.70;99.90
42245;DHT22;27912;51.828;5.688;2023-12-14T05:59:41;5.80;99.90
42245;DHT22;27912;51.828;5.688;2023-12-14T06:02:07;5.80;99.90
42245;DHT22;27912;51.828;5.688;2023-12-14T06:04:33;5.70;99.90
42245;DHT22;27912;51.828;5.688;2023-12-14T06:06:59;5.70;99.90
42245;DHT22;27912;51.828;5.688;2023-12-14T06:09:24;5.70;99.90
42245;DHT22;27912;51.828;5.688;2023-12-14T06:12:01;5.70;99.90
42245;DHT22;27912;51.828;5.688;2023-12-14T06:14:27;5.70;99.90
42245;DHT22;27912;51.828;5.688;2023-12-14T06:16:53;5.70;99.90
42245;DHT22;27912;51.828;5.688;2023-12-14T06:19:19;5.70;99.90
42245;DHT22;27912;51.828;5.688;2023-12-14T06:21:44;5.70;99.90
42245;DHT22;27912;51.828;5.688;2023-12-14T06:24:10;5.70;99.90
42245;DHT22;27912;51.828;5.688;2023-12-14T06:26:43;5.70;99.90
42245;DHT22;27912;51.828;5.688;2023-12-14T06:29:10;5.70;99.90
42245;DHT22;27912;51.828;5.688;2023-12-14T06:31:36;5.70;99.90
42245;DHT22;27912;51.828;5.688;2023-12-14T06:34:01;5.70;99.90
42245;DHT22;27912;51.828;5.688;2023-12-14T06:36:30;5.70;99.90
42245;DHT22;27912;51.828;5.688;2023-12-14T06:38:56;5.70;99.90
42245;DHT22;27912;51.828;5.688;2023-12-14T06:41:22;5.70;99.90
42245;DHT22;27912;51.828;5.688;2023-12-14T06:43:48;5.70;99.90
42245;DHT22;27912;51.828;5.688;2023-12-14T06:46:14;5.70;99.90
42245;DHT22;27912;51.828;5.688;2023-12-14T06:48:40;5.70;99.90
42245;DHT22;27912;51.828;5.688;2023-12-14T06:51:06;5.70;99.90
42245;DHT22;27912;51.828;5.688;2023-12-14T06:53:31;5.70;99.90
42245;DHT22;27912;51.828;5.688;2023-12-14T06:55:57;5.70;99.90
42245;DHT22;27912;51.828;5.688;2023-12-14T06:58:22;5.70;99.90
42245;DHT22;27912;51.828;5.688;2023-12-14T07:00:48;5.70;99.90
42245;DHT22;27912;51.828;5.688;2023-12-14T07:03:14;5.70;99.90
42245;DHT22;27912;51.828;5.688;2023-12-14T07:05:39;5.70;99.90
42245;DHT22;27912;51.828;5.688;2023-12-14T07:08:05;5.70;99.90
42245;DHT22;27912;51.828;5.688;2023-12-14T07:10:31;5.70;99.90
42245;DHT22;27912;51.828;5.688;2023-12-14T07:12:56;5.70;99.90
42245;DHT22;27912;51.828;5.688;2023-12-14T07:15:22;5.70;99.90
42245;DHT22;27912;51.828;5.688;2023-12-14T07:17:48;5.70;99.90
42245;DHT22;27912;51.828;5.688;2023-12-14T07:20:14;5.70;99.90
42245;DHT22;27912;51.828;5.688;2023-12-14T07:22:39;5.70;99.90
42245;DHT22;27912;51.828;5.688;2023-12-14T07:25:05;5.70;99.90
42245;DHT22;27912;51.828;5.688;2023-12-14T07:27:31;5.70;99.90
42245;DHT22;27912;51.828;5.688;2023-12-14T07:29:56;5.70;99.90
42245;DHT22;27912;51.828;5.688;2023-12-14T07:32:22;5.70;99.90
42245;DHT22;27912;51.828;5.688;2023-12-14T07:34:48;5.70;99.90
42245;DHT22;27912;51.828;5.688;2023-12-14T07:37:13;5.70;99.90
42245;DHT22;27912;51.828;5.688;2023-12-14T07:39:39;5.60;99.90
42245;DHT22;27912;51.828;5.688;2023-12-14T07:42:05;5.60;99.90
42245;DHT22;27912;51.828;5.688;2023-12-14T07:44:31;5.60;99.90
42245;DHT22;27912;51.828;5.688;2023-12-14T07:46:59;5.60;99.90
42245;DHT22;27912;51.828;5.688;2023-12-14T07:49:25;5.60;99.90
42245;DHT22;27912;51.828;5.688;2023-12-14T07:51:51;5.60;99.90
42245;DHT22;27912;51.828;5.688;2023-12-14T07:54:17;5.60;99.90
42245;DHT22;27912;51.828;5.688;2023-12-14T07:56:43;5.50;99.90
42245;DHT22;27912;51.828;5.688;2023-12-14T07:59:09;5.50;99.90
42245;DHT22;27912;51.828;5.688;2023-12-14T08:01:35;5.50;99.90
42245;DHT22;27912;51.828;5.688;2023-12-14T08:04:01;5.50;99.90
42245;DHT22;27912;51.828;5.688;2023-12-14T08:06:27;5.50;99.90
42245;DHT22;27912;51.828;5.688;2023-12-14T08:08:52;5.40;99.90
42245;DHT22;27912;51.828;5.688;2023-12-14T08:11:18;5.40;99.90
42245;DHT22;27912;51.828;5.688;2023-12-14T08:13:44;5.40;99.90
42245;DHT22;27912;51.828;5.688;2023-12-14T08:16:09;5.40;99.90
42245;DHT22;27912;51.828;5.688;2023-12-14T08:18:36;5.30;99.90
42245;DHT22;27912;51.828;5.688;2023-12-14T08:21:02;5.30;99.90
42245;DHT22;27912;51.828;5.688;2023-12-14T08:23:29;5.30;99.90
42245;DHT22;27912;51.828;5.688;2023-12-14T08:25:58;5.30;99.90
42245;DHT22;27912;51.828;5.688;2023-12-14T08:28:24;5.30;99.90
42245;DHT22;27912;51.828;5.688;2023-12-14T08:30:50;5.30;99.90
42245;DHT22;27912;51.828;5.688;2023-12-14T08:33:16;5.30;99.90
42245;DHT22;27912;51.828;5.688;2023-12-14T08:35:42;5.30;99.90
42245;DHT22;27912;51.828;5.688;2023-12-14T08:38:07;5.40;99.90
42245;DHT22;27912;51.828;5.688;2023-12-14T08:40:33;5.30;99.90
42245;DHT22;27912;51.828;5.688;2023-12-14T08:42:59;5.30;99.90
42245;DHT22;27912;51.828;5.688;2023-12-14T08:45:24;5.30;99.90
42245;DHT22;27912;51.828;5.688;2023-12-14T08:47:50;5.30;99.90
42245;DHT22;27912;51.828;5.688;2023-12-14T08:50:16;5.20;99.90
42245;DHT22;27912;51.828;5.688;2023-12-14T08:52:42;5.30;99.90
42245;DHT22;27912;51.828;5.688;2023-12-14T08:55:08;5.20;99.90
42245;DHT22;27912;51.828;5.688;2023-12-14T08:57:35;5.20;99.90
42245;DHT22;27912;51.828;5.688;2023-12-14T09:00:01;5.30;99.90
42245;DHT22;27912;51.828;5.688;2023-12-14T09:02:28;5.20;99.90
42245;DHT22;27912;51.828;5.688;2023-12-14T09:04:54;5.20;99.90
42245;DHT22;27912;51.828;5.688;2023-12-14T09:07:20;5.30;99.90
42245;DHT22;27912;51.828;5.688;2023-12-14T09:09:45;5.30;99.90
42245;DHT22;27912;51.828;5.688;2023-12-14T09:12:12;5.30;99.90
42245;DHT22;27912;51.828;5.688;2023-12-14T09:14:37;5.30;99.90
42245;DHT22;27912;51.828;5.688;2023-12-14T09:17:03;5.30;99.90
42245;DHT22;27912;51.828;5.688;2023-12-14T09:19:32;5.30;99.90
42245;DHT22;27912;51.828;5.688;2023-12-14T09:21:57;5.30;99.90
42245;DHT22;27912;51.828;5.688;2023-12-14T09:24:23;5.30;99.90
42245;DHT22;27912;51.828;5.688;2023-12-14T09:26:49;5.30;99.90
42245;DHT22;27912;51.828;5.688;2023-12-14T09:29:15;5.30;99.90
42245;DHT22;27912;51.828;5.688;2023-12-14T09:31:42;5.30;99.90
42245;DHT22;27912;51.828;5.688;2023-12-14T09:34:09;5.30;99.90
42245;DHT22;27912;51.828;5.688;2023-12-14T09:36:34;5.30;99.90
42245;DHT22;27912;51.828;5.688;2023-12-14T09:39:00;5.40;99.90
42245;DHT22;27912;51.828;5.688;2023-12-14T09:41:26;5.50;99.90
42245;DHT22;27912;51.828;5.688;2023-12-14T09:43:52;5.40;99.90
42245;DHT22;27912;51.828;5.688;2023-12-14T09:46:18;5.40;99.90
42245;DHT22;27912;51.828;5.688;2023-12-14T09:48:46;5.40;99.90
42245;DHT22;27912;51.828;5.688;2023-12-14T09:51:12;5.40;99.90
42245;DHT22;27912;51.828;5.688;2023-12-14T09:53:37;5.50;99.90
42245;DHT22;27912;51.828;5.688;2023-12-14T09:56:03;5.40;99.90
42245;DHT22;27912;51.828;5.688;2023-12-14T09:58:32;5.40;99.90
42245;DHT22;27912;51.828;5.688;2023-12-14T10:00:58;5.40;99.90
42245;DHT22;27912;51.828;5.688;2023-12-14T10:03:27;5.40;99.90
42245;DHT22;27912;51.828;5.688;2023-12-14T10:05:57;5.50;99.90
42245;DHT22;27912;51.828;5.688;2023-12-14T10:08:24;5.40;99.90
42245;DHT22;27912;51.828;5.688;2023-12-14T10:10:52;5.50;99.90
42245;DHT22;27912;51.828;5.688;2023-12-14T10:13:19;5.50;99.90
42245;DHT22;27912;51.828;5.688;2023-12-14T10:15:46;5.40;99.90
42245;DHT22;27912;51.828;5.688;2023-12-14T10:18:22;5.50;99.90
42245;DHT22;27912;51.828;5.688;2023-12-14T10:20:51;5.50;99.90
42245;DHT22;27912;51.828;5.688;2023-12-14T10:23:17;5.50;99.90
42245;DHT22;27912;51.828;5.688;2023-12-14T10:25:43;5.50;99.90
42245;DHT22;27912;51.828;5.688;2023-12-14T10:28:12;5.50;99.90
42245;DHT22;27912;51.828;5.688;2023-12-14T10:30:39;5.50;99.90
42245;DHT22;27912;51.828;5.688;2023-12-14T10:33:05;5.50;99.90
42245;DHT22;27912;51.828;5.688;2023-12-14T10:35:30;5.50;99.90
42245;DHT22;27912;51.828;5.688;2023-12-14T10:38:00;5.50;99.90
42245;DHT22;27912;51.828;5.688;2023-12-14T10:40:27;5.50;99.90
42245;DHT22;27912;51.828;5.688;2023-12-14T10:42:55;5.50;99.90
42245;DHT22;27912;51.828;5.688;2023-12-14T10:45:26;5.50;99.90
42245;DHT22;27912;51.828;5.688;2023-12-14T10:47:53;5.50;99.90
42245;DHT22;27912;51.828;5.688;2023-12-14T10:50:20;5.50;99.90
42245;DHT22;27912;51.828;5.688;2023-12-14T10:52:46;5.60;99.90
42245;DHT22;27912;51.828;5.688;2023-12-14T10:55:22;5.60;99.90
42245;DHT22;27912;51.828;5.688;2023-12-14T10:57:51;5.60;99.90
42245;DHT22;27912;51.828;5.688;2023-12-14T11:00:18;5.70;99.90
42245;DHT22;27912;51.828;5.688;2023-12-14T11:02:46;5.70;99.90
42245;DHT22;27912;51.828;5.688;2023-12-14T11:05:13;5.70;99.90
42245;DHT22;27912;51.828;5.688;2023-12-14T11:07:53;5.70;99.90
42245;DHT22;27912;51.828;5.688;2023-12-14T11:10:21;5.80;99.90
42245;DHT22;27912;51.828;5.688;2023-12-14T11:12:51;5.80;99.90
42245;DHT22;27912;51.828;5.688;2023-12-14T11:15:18;5.70;99.90
42245;DHT22;27912;51.828;5.688;2023-12-14T11:23:11;5.80;99.90
42245;DHT22;27912;51.828;5.688;2023-12-14T11:25:41;5.80;99.90
42245;DHT22;27912;51.828;5.688;2023-12-14T11:28:07;5.80;99.90
42245;DHT22;27912;51.828;5.688;2023-12-14T11:30:36;5.80;99.90
42245;DHT22;27912;51.828;5.688;2023-12-14T11:33:03;5.80;99.90
42245;DHT22;27912;51.828;5.688;2023-12-14T11:35:29;5.80;99.90
42245;DHT22;27912;51.828;5.688;2023-12-14T11:37:56;5.80;99.90
42245;DHT22;27912;51.828;5.688;2023-12-14T11:40:27;5.80;99.90
42245;DHT22;27912;51.828;5.688;2023-12-14T11:43:01;5.80;99.90
42245;DHT22;27912;51.828;5.688;2023-12-14T11:45:32;5.80;99.90
42245;DHT22;27912;51.828;5.688;2023-12-14T11:47:57;5.80;99.90
42245;DHT22;27912;51.828;5.688;2023-12-14T11:50:23;5.80;99.90
42245;DHT22;27912;51.828;5.688;2023-12-14T11:52:49;5.80;99.90
42245;DHT22;27912;51.828;5.688;2023-12-14T11:55:15;5.80;99.90
42245;DHT22;27912;51.828;5.688;2023-12-14T11:57:46;5.80;99.90
42245;DHT22;27912;51.828;5.688;2023-12-14T12:00:13;5.80;99.90
42245;DHT22;27912;51.828;5.688;2023-12-14T12:02:39;5.90;99.90
42245;DHT22;27912;51.828;5.688;2023-12-14T12:05:06;6.00;99.90
42245;DHT22;27912;51.828;5.688;2023-12-14T12:07:32;6.10;99.90
42245;DHT22;27912;51.828;5.688;2023-12-14T12:09:59;6.20;99.90
42245;DHT22;27912;51.828;5.688;2023-12-14T12:12:25;6.20;99.90
42245;DHT22;27912;51.828;5.688;2023-12-14T12:14:51;6.20;99.90
42245;DHT22;27912;51.828;5.688;2023-12-14T12:17:18;6.20;99.90
42245;DHT22;27912;51.828;5.688;2023-12-14T12:19:47;6.20;99.90
42245;DHT22;27912;51.828;5.688;2023-12-14T12:22:12;6.20;99.90
42245;DHT22;27912;51.828;5.688;2023-12-14T12:24:38;6.20;99.90
42245;DHT22;27912;51.828;5.688;2023-12-14T12:27:04;6.20;99.90
42245;DHT22;27912;51.828;5.688;2023-12-14T12:29:30;6.20;99.90
42245;DHT22;27912;51.828;5.688;2023-12-14T12:31:56;6.20;99.90
42245;DHT22;27912;51.828;5.688;2023-12-14T12:34:21;6.20;99.90
42245;DHT22;27912;51.828;5.688;2023-12-14T12:36:47;6.30;99.90
42245;DHT22;27912;51.828;5.688;2023-12-14T12:39:13;6.30;99.90
42245;DHT22;27912;51.828;5.688;2023-12-14T12:41:39;6.30;99.90
42245;DHT22;27912;51.828;5.688;2023-12-14T12:44:05;6.30;99.90
42245;DHT22;27912;51.828;5.688;2023-12-14T12:46:37;6.30;99.90
42245;DHT22;27912;51.828;5.688;2023-12-14T12:49:04;6.30;99.90
42245;DHT22;27912;51.828;5.688;2023-12-14T12:51:30;6.30;99.90
42245;DHT22;27912;51.828;5.688;2023-12-14T12:53:58;6.30;99.90
42245;DHT22;27912;51.828;5.688;2023-12-14T12:56:25;6.40;99.90
42245;DHT22;27912;51.828;5.688;2023-12-14T12:58:51;6.30;99.90
42245;DHT22;27912;51.828;5.688;2023-12-14T13:01:20;6.30;99.90
42245;DHT22;27912;51.828;5.688;2023-12-14T13:03:46;6.30;99.90
42245;DHT22;27912;51.828;5.688;2023-12-14T13:06:12;6.20;99.90
42245;DHT22;27912;51.828;5.688;2023-12-14T13:08:37;6.20;99.90
42245;DHT22;27912;51.828;5.688;2023-12-14T13:11:03;6.20;99.90
42245;DHT22;27912;51.828;5.688;2023-12-14T13:13:29;6.20;99.90
42245;DHT22;27912;51.828;5.688;2023-12-14T13:15:56;6.10;99.90
42245;DHT22;27912;51.828;5.688;2023-12-14T13:18:22;6.10;99.90
42245;DHT22;27912;51.828;5.688;2023-12-14T13:20:47;6.10;99.90
42245;DHT22;27912;51.828;5.688;2023-12-14T13:23:13;6.20;99.90
42245;DHT22;27912;51.828;5.688;2023-12-14T13:25:39;6.10;99.90
42245;DHT22;27912;51.828;5.688;2023-12-14T13:28:04;6.10;99.90
42245;DHT22;27912;51.828;5.688;2023-12-14T13:30:30;6.10;99.90
42245;DHT22;27912;51.828;5.688;2023-12-14T13:32:56;6.10;99.90
42245;DHT22;27912;51.828;5.688;2023-12-14T13:35:21;6.10;99.90
42245;DHT22;27912;51.828;5.688;2023-12-14T13:37:50;6.10;99.90
42245;DHT22;27912;51.828;5.688;2023-12-14T13:40:16;6.10;99.90
42245;DHT22;27912;51.828;5.688;2023-12-14T13:42:42;6.10;99.90
42245;DHT22;27912;51.828;5.688;2023-12-14T13:45:08;6.10;99.90
42245;DHT22;27912;51.828;5.688;2023-12-14T13:47:34;6.20;99.90
42245;DHT22;27912;51.828;5.688;2023-12-14T13:49:59;6.20;99.90
42245;DHT22;27912;51.828;5.688;2023-12-14T13:52:25;6.20;99.90
42245;DHT22;27912;51.828;5.688;2023-12-14T13:54:50;6.30;99.90
42245;DHT22;27912;51.828;5.688;2023-12-14T13:57:17;6.30;99.90
42245;DHT22;27912;51.828;5.688;2023-12-14T13:59:42;6.30;99.90
42245;DHT22;27912;51.828;5.688;2023-12-14T14:02:08;6.30;99.90
42245;DHT22;27912;51.828;5.688;2023-12-14T14:04:33;6.30;99.90
42245;DHT22;27912;51.828;5.688;2023-12-14T14:06:59;6.30;99.90
42245;DHT22;27912;51.828;5.688;2023-12-14T14:09:24;6.30;99.90
42245;DHT22;27912;51.828;5.688;2023-12-14T14:11:51;6.40;99.90
42245;DHT22;27912;51.828;5.688;2023-12-14T14:14:16;6.40;99.90
42245;DHT22;27912;51.828;5.688;2023-12-14T14:16:42;6.40;99.90
42245;DHT22;27912;51.828;5.688;2023-12-14T14:19:07;6.50;99.90
42245;DHT22;27912;51.828;5.688;2023-12-14T14:21:33;6.50;99.90
42245;DHT22;27912;51.828;5.688;2023-12-14T14:23:59;6.60;99.90
42245;DHT22;27912;51.828;5.688;2023-12-14T14:26:24;6.60;99.90
42245;DHT22;27912;51.828;5.688;2023-12-14T14:28:50;6.60;99.90
42245;DHT22;27912;51.828;5.688;2023-12-14T14:31:15;6.60;99.90
42245;DHT22;27912;51.828;5.688;2023-12-14T14:33:41;6.60;99.90
42245;DHT22;27912;51.828;5.688;2023-12-14T14:36:07;6.50;99.90
42245;DHT22;27912;51.828;5.688;2023-12-14T14:38:34;6.50;99.90
42245;DHT22;27912;51.828;5.688;2023-12-14T14:40:59;6.40;99.90
42245;DHT22;27912;51.828;5.688;2023-12-14T14:43:25;6.40;99.90
42245;DHT22;27912;51.828;5.688;2023-12-14T14:45:50;6.30;99.90
42245;DHT22;27912;51.828;5.688;2023-12-14T14:48:16;6.20;99.90
42245;DHT22;27912;51.828;5.688;2023-12-14T14:50:42;6.20;99.90
42245;DHT22;27912;51.828;5.688;2023-12-14T14:53:08;6.20;99.90
42245;DHT22;27912;51.828;5.688;2023-12-14T14:55:33;6.20;99.90
42245;DHT22;27912;51.828;5.688;2023-12-14T14:58:00;6.20;99.90
42245;DHT22;27912;51.828;5.688;2023-12-14T15:00:25;6.20;99.90
42245;DHT22;27912;51.828;5.688;2023-12-14T15:02:52;6.20;99.90
42245;DHT22;27912;51.828;5.688;2023-12-14T15:05:17;6.20;99.90
42245;DHT22;27912;51.828;5.688;2023-12-14T15:07:43;6.20;99.90
42245;DHT22;27912;51.828;5.688;2023-12-14T15:10:09;6.20;99.90
42245;DHT22;27912;51.828;5.688;2023-12-14T15:12:34;6.20;99.90
42245;DHT22;27912;51.828;5.688;2023-12-14T15:15:00;6.20;99.90
42245;DHT22;27912;51.828;5.688;2023-12-14T15:17:25;6.20;99.90
42245;DHT22;27912;51.828;5.688;2023-12-14T15:19:51;6.10;99.90
42245;DHT22;27912;51.828;5.688;2023-12-14T15:22:17;6.10;99.90
42245;DHT22;27912;51.828;5.688;2023-12-14T15:24:42;6.10;99.90
42245;DHT22;27912;51.828;5.688;2023-12-14T15:27:08;6.10;99.90
42245;DHT22;27912;51.828;5.688;2023-12-14T15:29:34;6.10;99.90
42245;DHT22;27912;51.828;5.688;2023-12-14T15:32:00;6.10;99.90
42245;DHT22;27912;51.828;5.688;2023-12-14T15:34:25;6.10;99.90
42245;DHT22;27912;51.828;5.688;2023-12-14T15:36:51;6.10;99.90
42245;DHT22;27912;51.828;5.688;2023-12-14T15:39:17;6.10;99.90
42245;DHT22;27912;51.828;5.688;2023-12-14T15:41:42;6.10;99.90
42245;DHT22;27912;51.828;5.688;2023-12-14T15:44:08;6.10;99.90